Time,TemperatureF,DewpointF,PressureIn,WindDirection,WindDirectionDegrees,WindSpeedMPH,WindSpeedGustMPH,Humidity,HourlyPrecipIn,Conditions,Clouds,dailyrainin,SoftwareType,DateUTC
2013-02-12 00:01:00,47.0,41.0,30.06,ESE,117,2.0,7.0,78,0.00,,,0.00,,2013-02-12 06:01:00,
2013-02-12 00:12:00,46.0,40.0,30.07,ESE,122,1.0,3.0,79,0.00,,,0.00,,2013-02-12 06:12:00,
2013-02-12 00:21:00,46.0,40.0,30.07,ESE,122,1.0,3.0,79,0.00,,,0.00,,2013-02-12 06:21:00,
2013-02-12 00:31:00,46.0,40.0,30.04,ESE,119,1.0,9.0,80,0.00,,,0.00,,2013-02-12 06:31:00,
2013-02-12 00:42:00,46.0,41.0,30.03,ESE,123,2.0,7.0,81,0.00,,,0.00,,2013-02-12 06:42:00,
2013-02-12 00:51:00,46.0,41.0,30.03,ESE,123,2.0,7.0,81,0.00,,,0.00,,2013-02-12 06:51:00,
2013-02-12 01:01:00,46.0,41.0,30.00,SE,127,2.0,5.0,81,0.00,,,0.00,,2013-02-12 07:01:00,
2013-02-12 01:11:00,46.0,41.0,30.00,SE,127,2.0,5.0,81,0.00,,,0.00,,2013-02-12 07:11:00,
2013-02-12 01:21:00,46.0,41.0,30.00,ESE,117,2.0,6.0,81,0.00,,,0.00,,2013-02-12 07:21:00,
2013-02-12 01:31:00,46.0,41.0,30.03,SSE,151,1.0,6.0,82,0.00,,,0.00,,2013-02-12 07:31:00,
2013-02-12 01:41:00,46.0,41.0,30.03,SSE,151,1.0,6.0,82,0.00,,,0.00,,2013-02-12 07:41:00,
2013-02-12 01:51:00,46.0,41.0,30.03,ENE,71,1.0,3.0,83,0.00,,,0.00,,2013-02-12 07:51:00,
2013-02-12 02:01:00,46.0,41.0,30.01,South,189,1.0,6.0,83,0.00,,,0.00,,2013-02-12 08:01:00,
2013-02-12 02:11:00,46.0,41.0,30.01,South,189,1.0,6.0,83,0.00,,,0.00,,2013-02-12 08:11:00,
2013-02-12 02:21:00,46.0,41.0,30.03,SSE,148,1.0,5.0,83,0.00,,,0.00,,2013-02-12 08:21:00,
2013-02-12 02:31:00,46.0,41.0,30.02,SE,126,2.0,5.0,84,0.00,,,0.00,,2013-02-12 08:31:00,
2013-02-12 02:41:00,46.0,41.0,30.02,SE,126,2.0,5.0,84,0.00,,,0.00,,2013-02-12 08:41:00,
2013-02-12 02:52:00,46.0,42.0,30.01,SE,146,1.0,3.0,85,0.00,,,0.00,,2013-02-12 08:52:00,
2013-02-12 03:01:00,46.0,42.0,30.02,East,100,0.0,3.0,85,0.00,,,0.00,,2013-02-12 09:01:00,
2013-02-12 03:11:00,46.0,42.0,30.02,East,100,0.0,3.0,85,0.00,,,0.00,,2013-02-12 09:11:00,
2013-02-12 03:21:00,46.0,42.0,30.02,ENE,73,1.0,3.0,86,0.00,,,0.00,,2013-02-12 09:21:00,
2013-02-12 03:32:00,46.0,42.0,29.99,East,83,1.0,6.0,87,0.00,,,0.00,,2013-02-12 09:32:00,
2013-02-12 03:41:00,46.0,42.0,29.99,East,83,1.0,6.0,87,0.00,,,0.00,,2013-02-12 09:41:00,
2013-02-12 03:51:00,46.0,42.0,30.01,ENE,58,0.0,3.0,87,0.00,,,0.00,,2013-02-12 09:51:00,
2013-02-12 04:01:00,46.0,43.0,29.99,ENE,74,1.0,3.0,88,0.01,,,0.01,,2013-02-12 10:01:00,
2013-02-12 04:11:00,46.0,43.0,29.98,ENE,74,1.0,3.0,89,0.01,,,0.01,,2013-02-12 10:11:00,
2013-02-12 04:21:00,46.0,43.0,29.98,ENE,74,1.0,3.0,89,0.01,,,0.01,,2013-02-12 10:21:00,
2013-02-12 04:31:00,45.0,42.0,29.96,SE,128,1.0,8.0,89,0.01,,,0.01,,2013-02-12 10:31:00,
2013-02-12 04:43:00,45.0,42.0,29.96,SE,128,1.0,8.0,89,0.01,,,0.01,,2013-02-12 10:43:00,
2013-02-12 04:51:00,45.0,42.0,29.96,East,85,2.0,6.0,90,0.01,,,0.01,,2013-02-12 10:51:00,
2013-02-12 05:01:00,45.0,42.0,29.96,East,98,1.0,5.0,90,0.01,,,0.01,,2013-02-12 11:01:00,
2013-02-12 05:11:00,45.0,42.0,29.96,East,98,1.0,5.0,90,0.01,,,0.01,,2013-02-12 11:11:00,
2013-02-12 05:21:00,45.0,43.0,29.92,ENE,61,3.0,9.0,91,0.01,,,0.02,,2013-02-12 11:21:00,
2013-02-12 05:31:00,45.0,43.0,29.92,East,91,2.0,7.0,91,0.01,,,0.02,,2013-02-12 11:31:00,
2013-02-12 05:41:00,45.0,43.0,29.92,East,91,2.0,7.0,91,0.01,,,0.02,,2013-02-12 11:41:00,
2013-02-12 05:52:00,45.0,43.0,29.91,ESE,122,2.0,6.0,91,0.01,,,0.02,,2013-02-12 11:52:00,
2013-02-12 06:01:00,45.0,43.0,29.93,ESE,120,2.0,6.0,91,0.03,,,0.04,,2013-02-12 12:01:00,
2013-02-12 06:11:00,45.0,43.0,29.93,ESE,120,2.0,6.0,91,0.03,,,0.04,,2013-02-12 12:11:00,
2013-02-12 06:21:00,45.0,43.0,29.93,SE,137,1.0,5.0,91,0.04,,,0.06,,2013-02-12 12:21:00,
2013-02-12 06:32:00,45.0,43.0,29.93,ENE,64,1.0,3.0,91,0.11,,,0.13,,2013-02-12 12:32:00,
2013-02-12 06:42:00,45.0,43.0,29.93,ENE,64,1.0,3.0,91,0.11,,,0.13,,2013-02-12 12:42:00,
2013-02-12 06:53:00,45.0,43.0,29.93,East,79,1.0,6.0,92,0.14,,,0.16,,2013-02-12 12:53:00,
2013-02-12 07:01:00,45.0,43.0,29.93,ESE,106,2.0,6.0,92,0.20,,,0.24,,2013-02-12 13:01:00,
2013-02-12 07:11:00,45.0,43.0,29.93,East,87,1.0,3.0,92,0.19,,,0.24,,2013-02-12 13:11:00,
2013-02-12 07:22:00,45.0,43.0,29.93,East,87,1.0,3.0,92,0.19,,,0.24,,2013-02-12 13:22:00,
2013-02-12 07:32:00,45.0,43.0,29.93,ESE,116,1.0,5.0,92,0.11,,,0.24,,2013-02-12 13:32:00,
2013-02-12 07:42:00,45.0,43.0,29.93,ESE,116,1.0,5.0,92,0.11,,,0.24,,2013-02-12 13:42:00,
2013-02-12 07:51:00,45.0,43.0,29.93,ESE,117,1.0,6.0,92,0.09,,,0.24,,2013-02-12 13:51:00,
2013-02-12 08:01:00,45.0,43.0,29.90,SSE,154,1.0,6.0,92,0.00,,,0.24,,2013-02-12 14:01:00,
2013-02-12 08:11:00,45.0,43.0,29.90,SSE,154,1.0,6.0,92,0.00,,,0.24,,2013-02-12 14:11:00,
2013-02-12 08:21:00,45.0,43.0,29.90,SSE,147,2.0,5.0,92,0.00,,,0.24,,2013-02-12 14:21:00,
2013-02-12 08:32:00,46.0,44.0,29.90,SE,125,1.0,6.0,93,0.00,,,0.24,,2013-02-12 14:32:00,
2013-02-12 08:42:00,46.0,44.0,29.90,SE,125,1.0,6.0,93,0.00,,,0.24,,2013-02-12 14:42:00,
2013-02-12 08:52:00,46.0,44.0,29.91,ESE,103,1.0,7.0,93,0.00,,,0.24,,2013-02-12 14:52:00,
2013-02-12 09:02:00,46.0,44.0,29.91,SSW,202,0.0,5.0,93,0.00,,,0.24,,2013-02-12 15:02:00,
2013-02-12 09:11:00,46.0,44.0,29.93,NW,308,3.0,5.0,93,0.01,,,0.25,,2013-02-12 15:11:00,
2013-02-12 09:21:00,46.0,44.0,29.93,NW,308,3.0,5.0,93,0.01,,,0.25,,2013-02-12 15:21:00,
2013-02-12 09:32:00,46.0,44.0,29.93,NW,318,0.0,2.0,93,0.03,,,0.27,,2013-02-12 15:32:00,
2013-02-12 09:42:00,46.0,44.0,29.93,NW,318,0.0,2.0,93,0.03,,,0.27,,2013-02-12 15:42:00,
2013-02-12 09:52:00,46.0,44.0,29.96,NW,318,0.0,3.0,93,0.04,,,0.28,,2013-02-12 15:52:00,
2013-02-12 10:01:00,46.0,44.0,29.96,NW,318,0.0,2.0,93,0.04,,,0.28,,2013-02-12 16:01:00,
2013-02-12 10:11:00,46.0,44.0,29.96,NW,318,0.0,2.0,93,0.04,,,0.28,,2013-02-12 16:11:00,
2013-02-12 10:22:00,47.0,45.0,29.96,NW,318,0.0,1.0,93,0.03,,,0.28,,2013-02-12 16:22:00,
2013-02-12 10:31:00,47.0,45.0,29.96,NW,318,0.0,2.0,93,0.02,,,0.29,,2013-02-12 16:31:00,
2013-02-12 10:41:00,47.0,45.0,29.96,NW,318,0.0,2.0,93,0.02,,,0.29,,2013-02-12 16:41:00,
2013-02-12 10:51:00,47.0,45.0,29.96,NW,318,0.0,1.0,93,0.01,,,0.29,,2013-02-12 16:51:00,
2013-02-12 11:01:00,47.0,45.0,29.96,NW,318,0.0,1.0,93,0.01,,,0.29,,2013-02-12 17:01:00,
2013-02-12 11:12:00,47.0,45.0,29.96,NW,318,0.0,1.0,93,0.01,,,0.29,,2013-02-12 17:12:00,
2013-02-12 11:21:00,47.0,45.0,29.96,NW,318,0.0,2.0,93,0.01,,,0.29,,2013-02-12 17:21:00,
2013-02-12 11:32:00,48.0,46.0,29.96,NNW,346,0.0,3.0,93,0.00,,,0.29,,2013-02-12 17:32:00,
2013-02-12 11:42:00,48.0,46.0,29.96,NNW,346,0.0,3.0,93,0.00,,,0.29,,2013-02-12 17:42:00,
2013-02-12 11:52:00,48.0,46.0,29.94,ENE,76,0.0,3.0,93,0.00,,,0.29,,2013-02-12 17:52:00,
2013-02-12 12:01:00,49.0,47.0,29.94,ENE,76,1.0,3.0,93,0.00,,,0.29,,2013-02-12 18:01:00,
2013-02-12 12:11:00,48.0,46.0,29.94,ENE,75,0.0,3.0,93,0.00,,,0.29,,2013-02-12 18:11:00,
2013-02-12 12:22:00,48.0,46.0,29.94,ENE,75,0.0,3.0,93,0.00,,,0.29,,2013-02-12 18:22:00,
2013-02-12 12:31:00,48.0,46.0,29.93,ENE,74,0.0,2.0,93,0.00,,,0.29,,2013-02-12 18:31:00,
2013-02-12 12:41:00,48.0,46.0,29.93,ENE,74,0.0,2.0,93,0.00,,,0.29,,2013-02-12 18:41:00,
2013-02-12 12:51:00,48.0,46.0,29.93,ENE,74,0.0,1.0,93,0.00,,,0.29,,2013-02-12 18:51:00,
2013-02-12 13:02:00,48.0,46.0,29.93,ENE,63,1.0,2.0,93,0.00,,,0.29,,2013-02-12 19:02:00,
2013-02-12 13:11:00,48.0,46.0,29.93,ENE,63,1.0,2.0,93,0.00,,,0.29,,2013-02-12 19:11:00,
2013-02-12 13:21:00,49.0,47.0,29.92,NW,312,0.0,3.0,93,0.00,,,0.29,,2013-02-12 19:21:00,
2013-02-12 13:31:00,49.0,47.0,29.92,NW,304,1.0,3.0,93,0.00,,,0.29,,2013-02-12 19:31:00,
2013-02-12 13:42:00,49.0,47.0,29.91,WNW,302,0.0,3.0,93,0.00,,,0.29,,2013-02-12 19:42:00,
2013-02-12 13:52:00,49.0,47.0,29.91,WNW,302,0.0,3.0,93,0.00,,,0.29,,2013-02-12 19:52:00,
2013-02-12 14:01:00,49.0,47.0,29.90,NW,305,1.0,3.0,92,0.00,,,0.29,,2013-02-12 20:01:00,
2013-02-12 14:11:00,49.0,47.0,29.90,NW,305,1.0,3.0,92,0.00,,,0.29,,2013-02-12 20:11:00,
2013-02-12 14:21:00,49.0,47.0,29.90,NW,304,1.0,3.0,92,0.00,,,0.29,,2013-02-12 20:21:00,
2013-02-12 14:31:00,49.0,47.0,29.89,North,355,0.0,5.0,92,0.00,,,0.29,,2013-02-12 20:31:00,
2013-02-12 14:41:00,49.0,47.0,29.89,North,355,0.0,5.0,92,0.00,,,0.29,,2013-02-12 20:41:00,
2013-02-12 14:51:00,49.0,47.0,29.89,NNW,343,0.0,3.0,92,0.00,,,0.29,,2013-02-12 20:51:00,
2013-02-12 15:01:00,49.0,47.0,29.88,NW,314,0.0,5.0,92,0.00,,,0.29,,2013-02-12 21:01:00,
2013-02-12 15:11:00,49.0,47.0,29.88,NW,314,0.0,5.0,92,0.00,,,0.29,,2013-02-12 21:11:00,
2013-02-12 15:21:00,49.0,46.0,29.88,WNW,291,1.0,5.0,91,0.00,,,0.29,,2013-02-12 21:21:00,
2013-02-12 15:31:00,49.0,46.0,29.87,NW,317,1.0,5.0,91,0.00,,,0.29,,2013-02-12 21:31:00,
2013-02-12 15:42:00,49.0,46.0,29.89,WNW,291,2.0,6.0,91,0.00,,,0.29,,2013-02-12 21:42:00,
2013-02-12 15:51:00,49.0,46.0,29.89,WNW,291,2.0,6.0,91,0.00,,,0.29,,2013-02-12 21:51:00,
2013-02-12 16:01:00,49.0,46.0,29.89,NW,308,5.0,9.0,90,0.00,,,0.29,,2013-02-12 22:01:00,
2013-02-12 16:12:00,49.0,46.0,29.89,NW,308,5.0,9.0,90,0.00,,,0.29,,2013-02-12 22:12:00,
2013-02-12 16:21:00,49.0,46.0,29.89,WNW,303,5.0,10.0,90,0.00,,,0.29,,2013-02-12 22:21:00,
2013-02-12 16:32:00,48.0,45.0,29.91,NW,311,4.0,9.0,90,0.00,,,0.29,,2013-02-12 22:32:00,
2013-02-12 16:41:00,48.0,45.0,29.91,NW,311,4.0,9.0,90,0.00,,,0.29,,2013-02-12 22:41:00,
2013-02-12 16:51:00,48.0,45.0,29.90,NW,324,4.0,10.0,90,0.00,,,0.29,,2013-02-12 22:51:00,
2013-02-12 17:01:00,48.0,45.0,29.91,WNW,301,3.0,9.0,89,0.00,,,0.29,,2013-02-12 23:01:00,
2013-02-12 17:11:00,48.0,45.0,29.90,NW,321,5.0,9.0,89,0.00,,,0.29,,2013-02-12 23:11:00,
2013-02-12 17:21:00,48.0,45.0,29.90,NW,321,5.0,9.0,89,0.00,,,0.29,,2013-02-12 23:21:00,
2013-02-12 17:31:00,49.0,45.0,29.91,NW,313,3.0,12.0,87,0.00,,,0.29,,2013-02-12 23:31:00,
2013-02-12 17:42:00,49.0,45.0,29.91,NW,313,3.0,12.0,87,0.00,,,0.29,,2013-02-12 23:42:00,
2013-02-12 17:52:00,48.0,44.0,29.91,NW,322,5.0,12.0,87,0.00,,,0.29,,2013-02-12 23:52:00,
2013-02-12 18:02:00,48.0,44.0,29.91,WNW,293,3.0,10.0,86,0.00,,,0.29,,2013-02-13 00:02:00,
2013-02-12 18:11:00,48.0,44.0,29.91,WNW,293,3.0,10.0,86,0.00,,,0.29,,2013-02-13 00:11:00,
2013-02-12 18:21:00,48.0,44.0,29.92,WNW,297,3.0,9.0,86,0.00,,,0.29,,2013-02-13 00:21:00,
2013-02-12 18:32:00,48.0,44.0,29.93,West,273,3.0,7.0,87,0.00,,,0.29,,2013-02-13 00:32:00,
2013-02-12 18:42:00,48.0,44.0,29.93,West,273,3.0,7.0,87,0.00,,,0.29,,2013-02-13 00:42:00,
2013-02-12 18:51:00,48.0,44.0,29.93,NW,314,5.0,6.0,86,0.00,,,0.29,,2013-02-13 00:51:00,
2013-02-12 19:01:00,48.0,44.0,29.93,WSW,257,2.0,7.0,86,0.00,,,0.29,,2013-02-13 01:01:00,
2013-02-12 19:11:00,48.0,44.0,29.93,WSW,257,2.0,7.0,86,0.00,,,0.29,,2013-02-13 01:11:00,
2013-02-12 19:21:00,48.0,44.0,29.95,WNW,295,5.0,9.0,86,0.00,,,0.29,,2013-02-13 01:21:00,
2013-02-12 19:31:00,47.0,43.0,29.96,NW,306,4.0,12.0,86,0.00,,,0.29,,2013-02-13 01:31:00,
2013-02-12 19:42:00,47.0,43.0,29.96,NW,306,4.0,12.0,86,0.00,,,0.29,,2013-02-13 01:42:00,
2013-02-12 19:52:00,47.0,43.0,29.96,WNW,286,4.0,12.0,86,0.00,,,0.29,,2013-02-13 01:52:00,
2013-02-12 20:01:00,47.0,43.0,29.97,WNW,301,3.0,10.0,87,0.00,,,0.29,,2013-02-13 02:01:00,
2013-02-12 20:11:00,47.0,43.0,29.97,WNW,301,3.0,10.0,87,0.00,,,0.29,,2013-02-13 02:11:00,
2013-02-12 20:21:00,46.0,42.0,29.97,NW,314,3.0,7.0,87,0.00,,,0.29,,2013-02-13 02:21:00,
2013-02-12 20:31:00,46.0,43.0,29.97,WNW,295,2.0,6.0,88,0.00,,,0.29,,2013-02-13 02:31:00,
2013-02-12 20:41:00,46.0,43.0,29.97,WNW,295,2.0,6.0,88,0.00,,,0.29,,2013-02-13 02:41:00,
2013-02-12 20:52:00,46.0,43.0,29.98,NW,320,2.0,5.0,88,0.00,,,0.29,,2013-02-13 02:52:00,
2013-02-12 21:01:00,46.0,43.0,29.99,NW,325,2.0,9.0,88,0.00,,,0.29,,2013-02-13 03:01:00,
2013-02-12 21:11:00,45.0,42.0,29.99,WNW,293,3.0,7.0,89,0.00,,,0.29,,2013-02-13 03:11:00,
2013-02-12 21:21:00,45.0,42.0,29.99,WNW,293,3.0,7.0,89,0.00,,,0.29,,2013-02-13 03:21:00,
2013-02-12 21:32:00,45.0,42.0,29.99,WNW,299,3.0,6.0,89,0.00,,,0.29,,2013-02-13 03:32:00,
2013-02-12 21:41:00,45.0,42.0,29.99,WNW,299,3.0,6.0,89,0.00,,,0.29,,2013-02-13 03:41:00,
2013-02-12 21:51:00,45.0,42.0,29.99,WNW,282,5.0,10.0,90,0.00,,,0.29,,2013-02-13 03:51:00,
2013-02-12 22:01:00,45.0,42.0,29.99,West,279,6.0,14.0,90,0.00,,,0.29,,2013-02-13 04:01:00,
2013-02-12 22:11:00,45.0,42.0,29.99,West,279,6.0,14.0,90,0.00,,,0.29,,2013-02-13 04:11:00,
2013-02-12 22:21:00,46.0,43.0,30.00,WNW,286,8.0,15.0,90,0.00,,,0.29,,2013-02-13 04:21:00,
2013-02-12 22:31:00,45.0,42.0,30.01,WNW,301,9.0,18.0,88,0.01,,,0.30,,2013-02-13 04:31:00,
2013-02-12 22:41:00,45.0,42.0,30.01,WNW,301,9.0,18.0,88,0.01,,,0.30,,2013-02-13 04:41:00,
2013-02-12 22:51:00,44.0,41.0,30.01,WNW,287,10.0,20.0,88,0.01,,,0.30,,2013-02-13 04:51:00,
2013-02-12 23:01:00,43.0,40.0,30.03,NW,319,7.0,20.0,89,0.01,,,0.30,,2013-02-13 05:01:00,
2013-02-12 23:11:00,43.0,40.0,30.04,NW,314,9.0,16.0,88,0.01,,,0.30,,2013-02-13 05:11:00,
2013-02-12 23:22:00,43.0,40.0,30.04,NW,314,9.0,16.0,88,0.01,,,0.30,,2013-02-13 05:22:00,
2013-02-12 23:31:00,42.0,39.0,30.04,NW,312,8.0,16.0,88,0.00,,,0.30,,2013-02-13 05:31:00,
2013-02-12 23:41:00,42.0,39.0,30.04,NW,312,8.0,16.0,88,0.00,,,0.30,,2013-02-13 05:41:00,
2013-02-12 23:52:00,42.0,38.0,30.05,NW,315,5.0,13.0,87,0.00,,,0.30,,2013-02-13 05:52:00,